KVLD/VLD METAR and TAF weather

Enter ICAO airport designator
Station Type Date Time Source
KVLD METAR 2020/09/21 08:53 UTC NOAA

KVLD 210853Z AUTO 04008G18KT 10SM CLR 18/13 A3017 RMK AO2 SLP224 T01830128 55000 TSNO


Station Type Date Time Source
KVLD Decoded METAR 2020/09/21 08:53 UTC NOAA

VALDOSTA REGIONAL AIRPORT, GA, United States (KVLD) 30-47N 083-16W
Sep 21, 2020 - 04:53 AM EDT / 2020.09.21 0853 UTC
Wind: from the NE (040 degrees) at 9 MPH (8 KT) gusting to 21 MPH (18 KT):0
Visibility: 10 mile(s):0
Sky conditions: clear
Temperature: 64.9 F (18.3 C)
Dew Point: 55.0 F (12.8 C)
Relative Humidity: 70%
Pressure (altimeter): 30.17 in. Hg (1021 hPa)
Pressure tendency: 0.00 inches (0.0 hPa) lower than three hours ago
ob: KVLD 210853Z AUTO 04008G18KT 10SM CLR 18/13 A3017 RMK AO2 SLP224 T01830128 55000 TSNO
cycle: 9

Station Type Date Time Source
KVLD TAF 2020/09/21 06:36 UTC NOAA

TAF KVLD 210535Z 2106/2206 05010KT P6SM BKN250
FM211500 06012G22KT P6SM SCT250

Example: see airport list